This is the latest recevied weather packets stored in our database for station/object EA5CEE. If no packets are shown the sender has not sent any weather packets the latest 10 day(s).
| Time | Temp. | Humidity | Pressure | Rain* | Wind** | Luminosity | Snow |
|---|---|---|---|---|---|---|---|
| 1777644952 | 20° C | 85% | 1018.9 hPa | 0 mm | - | - | - |
| 1777644050 | 20° C | 86% | 1019 hPa | 0 mm | - | - | - |
| 1777643149 | 20° C | 85% | 1019 hPa | 0 mm | - | - | - |
| 1777642262 | 20.56° C | 84% | 1019.1 hPa | 0 mm | - | - | - |
| 1777641348 | 20.56° C | 83% | 1019.1 hPa | 0 mm | - | - | - |
| 1777640448 | 20° C | 86% | 1019.1 hPa | 0 mm | - | - | - |
| 1777639563 | 20.56° C | 86% | 1019.1 hPa | 0 mm | - | - | - |
| 1777638644 | 21.11° C | 85% | 1019 hPa | 0 mm | - | - | - |
| 1777637744 | 20.56° C | 83% | 1018.9 hPa | 0 mm | - | - | - |
| 1777636844 | 20.56° C | 83% | 1018.9 hPa | 0 mm | - | - | - |
| 1777635964 | 20.56° C | 82% | 1019.1 hPa | 0 mm | - | - | - |
| 1777635102 | 21.11° C | 81% | 1019 hPa | 0 mm | - | - | - |
| 1777634140 | 21.67° C | 77% | 1019 hPa | 0 mm | - | - | - |
| 1777633239 | 21.67° C | 74% | 1019.2 hPa | 0 mm | - | - | - |
| 1777632342 | 21.11° C | 76% | 1019.3 hPa | 0 mm | - | - | - |
| 1777631438 | 21.11° C | 77% | 1019.4 hPa | 0 mm | - | - | - |
| 1777630534 | 20.56° C | 80% | 1019.5 hPa | 0 mm | - | - | - |
| 1777629630 | 20° C | 82% | 1019.7 hPa | 0 mm | - | - | - |
| 1777628737 | 20° C | 81% | 1019.6 hPa | 0 mm | - | - | - |
| 1777627826 | 20° C | 83% | 1019.5 hPa | 0 mm | - | - | - |
| 1777626931 | 20° C | 83% | 1019.3 hPa | 0 mm | - | - | - |
| 1777626018 | 19.44° C | 86% | 1019.3 hPa | 0 mm | - | - | - |
| 1777625120 | 18.89° C | 89% | 1019.2 hPa | 0 mm | - | - | - |
| 1777624215 | 18.89° C | 90% | 1018.9 hPa | 0 mm | - | - | - |
| 1777623308 | 18.89° C | 91% | 1018.8 hPa | 0 mm | - | - | - |
* Rain latest hour (hover to see other rain measurements)
** Current wind speed in m/s (hover to see current wind gust speed)